MET'MAP v2.0
soon released !

Expected late october,
this new version will be
more efficient, smarter,
and hosted on a brand new
server x3 powerfull...
...and still free !


Not compatible ?
Try the mobile version !

LOG IN : | Subscribe | Disclaimer | Who is Orbifly ? |
ICAO code :

TAF - ETSB Büchel AB - 26 Feb 2020 16:42 UTC
Data Sources :     NOAA   


- Airport Elevation : 1568 ft
- No reported NOTAMs.


ETSB - Büchel AB

Latest METAR recorded : 2015/08/11 07:20 ETSB 110720Z AUTO 01005KT 9999 // ////// 17/13 Q1019 ///
TAF TAF ETSB
Valid from the 26 at 15:00 until the 27 at 00:00 UTC


261420Z 2615/2624 26015KT 9000 NSW BKN012 BKN030
TEMPO 2615/2624 28015G25KT 0500 SHSN VV001 BKN015CB
PROB30 2615/2624 27015G35KT 0200 TSSN VV001 BKN015CB
BECMG 2616/2618 24012KT 9999 NSW SCT012 BKN030 BY ETGL

Source NOAA


MET'MAP, your aeronautical weather chart ! - Copyright ORBIFLY December 2007

Programming & Development : Alexandra Zaïnal
Co-Developer : Marc-Olivier Méhu
Technical & hardware support : Manuel Goepfert
Concept & Financing : Baudouin d'Aumeries